Time,TemperatureF,DewpointF,PressureIn,WindDirection,WindDirectionDegrees,WindSpeedMPH,WindSpeedGustMPH,Humidity,HourlyPrecipIn,Conditions,Clouds,dailyrainin,SoftwareType,DateUTC
2013-03-23 00:02:00,73.0,69.0,29.96,SE,141,2.0,8.0,88,0.00,,,0.00,,2013-03-23 04:02:00,
2013-03-23 00:12:00,73.0,69.0,29.96,SE,141,2.0,8.0,88,0.00,,,0.00,,2013-03-23 04:12:00,
2013-03-23 00:23:00,73.0,70.0,29.97,South,171,2.0,7.0,89,0.00,,,0.00,,2013-03-23 04:23:00,
2013-03-23 00:32:00,73.0,70.0,29.96,SSE,159,3.0,7.0,89,0.00,,,0.00,,2013-03-23 04:32:00,
2013-03-23 00:43:00,73.0,70.0,29.96,SSE,159,3.0,7.0,89,0.00,,,0.00,,2013-03-23 04:43:00,
2013-03-23 00:53:00,73.0,70.0,29.96,South,169,3.0,7.0,89,0.00,,,0.00,,2013-03-23 04:53:00,
2013-03-23 01:02:00,73.0,70.0,29.96,SE,130,2.0,6.0,89,0.00,,,0.00,,2013-03-23 05:02:00,
2013-03-23 01:12:00,73.0,70.0,29.96,SE,130,2.0,6.0,89,0.00,,,0.00,,2013-03-23 05:12:00,
2013-03-23 01:22:00,73.0,70.0,29.96,SE,130,2.0,6.0,89,0.00,,,0.00,,2013-03-23 05:22:00,
2013-03-23 01:32:00,73.0,70.0,29.94,SSE,162,4.0,8.0,90,0.00,,,0.00,,2013-03-23 05:32:00,
2013-03-23 01:42:00,73.0,70.0,29.94,SSE,162,4.0,8.0,90,0.00,,,0.00,,2013-03-23 05:42:00,
2013-03-23 01:53:00,73.0,70.0,29.95,SSE,162,6.0,12.0,90,0.00,,,0.00,,2013-03-23 05:53:00,
2013-03-23 02:02:00,73.0,70.0,29.96,SSE,159,0.0,6.0,90,0.00,,,0.00,,2013-03-23 06:02:00,
2013-03-23 02:12:00,73.0,70.0,29.96,SSE,159,0.0,6.0,90,0.00,,,0.00,,2013-03-23 06:12:00,
2013-03-23 02:22:00,73.0,70.0,29.95,South,169,1.0,7.0,91,0.00,,,0.00,,2013-03-23 06:22:00,
2013-03-23 02:32:00,73.0,70.0,29.93,SSE,167,4.0,8.0,91,0.00,,,0.00,,2013-03-23 06:32:00,
2013-03-23 02:42:00,73.0,70.0,29.93,SSE,167,4.0,8.0,91,0.00,,,0.00,,2013-03-23 06:42:00,
2013-03-23 02:52:00,73.0,70.0,29.93,South,182,5.0,11.0,91,0.00,,,0.00,,2013-03-23 06:52:00,
2013-03-23 03:02:00,73.0,70.0,29.93,South,171,4.0,8.0,91,0.00,,,0.00,,2013-03-23 07:02:00,
2013-03-23 03:12:00,73.0,70.0,29.93,South,171,4.0,8.0,91,0.00,,,0.00,,2013-03-23 07:12:00,
2013-03-23 03:22:00,73.0,70.0,29.91,South,177,7.0,13.0,91,0.00,,,0.00,,2013-03-23 07:22:00,
2013-03-23 03:32:00,73.0,70.0,29.91,South,191,7.0,13.0,91,0.00,,,0.00,,2013-03-23 07:32:00,
2013-03-23 03:42:00,73.0,70.0,29.91,South,191,7.0,13.0,91,0.00,,,0.00,,2013-03-23 07:42:00,
2013-03-23 03:52:00,73.0,70.0,29.92,South,176,5.0,10.0,91,0.00,,,0.00,,2013-03-23 07:52:00,
2013-03-23 04:02:00,73.0,70.0,29.91,South,178,4.0,9.0,91,0.00,,,0.00,,2013-03-23 08:02:00,
2013-03-23 04:13:00,73.0,70.0,29.91,South,178,4.0,9.0,91,0.00,,,0.00,,2013-03-23 08:13:00,
2013-03-23 04:22:00,73.0,70.0,29.90,South,178,6.0,10.0,91,0.01,,,0.01,,2013-03-23 08:22:00,
2013-03-23 04:32:00,73.0,71.0,29.88,SSE,168,6.0,12.0,92,0.01,,,0.01,,2013-03-23 08:32:00,
2013-03-23 04:42:00,73.0,71.0,29.88,SSE,168,6.0,12.0,92,0.01,,,0.01,,2013-03-23 08:42:00,
2013-03-23 04:52:00,73.0,71.0,29.89,South,180,5.0,10.0,92,0.01,,,0.01,,2013-03-23 08:52:00,
2013-03-23 05:02:00,73.0,71.0,29.90,South,173,3.0,6.0,92,0.01,,,0.01,,2013-03-23 09:02:00,
2013-03-23 05:12:00,73.0,71.0,29.90,South,173,3.0,6.0,92,0.01,,,0.01,,2013-03-23 09:12:00,
2013-03-23 05:22:00,73.0,71.0,29.90,SSW,194,0.0,4.0,92,0.00,,,0.01,,2013-03-23 09:22:00,
2013-03-23 05:33:00,73.0,71.0,29.91,SSW,194,0.0,4.0,92,0.00,,,0.01,,2013-03-23 09:33:00,
2013-03-23 05:42:00,73.0,71.0,29.91,SSW,194,0.0,4.0,92,0.00,,,0.01,,2013-03-23 09:42:00,
2013-03-23 05:53:00,73.0,71.0,29.91,South,187,0.0,4.0,92,0.00,,,0.01,,2013-03-23 09:53:00,
2013-03-23 06:03:00,73.0,71.0,29.91,South,187,0.0,0.0,92,0.00,,,0.01,,2013-03-23 10:03:00,
2013-03-23 06:13:00,73.0,71.0,29.91,South,187,0.0,0.0,92,0.00,,,0.01,,2013-03-23 10:13:00,
2013-03-23 06:23:00,73.0,71.0,29.91,South,187,0.0,0.0,92,0.00,,,0.01,,2013-03-23 10:23:00,
2013-03-23 06:34:00,72.0,70.0,29.91,South,179,0.0,0.0,92,0.00,,,0.01,,2013-03-23 10:34:00,
2013-03-23 06:42:00,72.0,70.0,29.91,South,179,0.0,0.0,92,0.00,,,0.01,,2013-03-23 10:42:00,
2013-03-23 06:53:00,72.0,70.0,29.91,South,179,0.0,0.0,92,0.00,,,0.01,,2013-03-23 10:53:00,
2013-03-23 07:03:00,72.0,70.0,29.91,South,179,0.0,2.0,92,0.00,,,0.01,,2013-03-23 11:03:00,
2013-03-23 07:12:00,72.0,70.0,29.91,South,179,0.0,2.0,92,0.00,,,0.01,,2013-03-23 11:12:00,
2013-03-23 07:22:00,72.0,70.0,29.92,South,170,1.0,4.0,92,0.00,,,0.01,,2013-03-23 11:22:00,
2013-03-23 07:32:00,73.0,71.0,29.92,SSE,165,0.0,5.0,92,0.00,,,0.01,,2013-03-23 11:32:00,
2013-03-23 07:42:00,73.0,71.0,29.92,SSE,165,0.0,5.0,92,0.00,,,0.01,,2013-03-23 11:42:00,
2013-03-23 07:52:00,73.0,71.0,29.92,SSE,159,2.0,7.0,92,0.00,,,0.01,,2013-03-23 11:52:00,
2013-03-23 08:02:00,73.0,71.0,29.92,SE,132,0.0,5.0,92,0.00,,,0.01,,2013-03-23 12:02:00,
2013-03-23 08:13:00,73.0,71.0,29.92,SE,132,0.0,5.0,92,0.00,,,0.01,,2013-03-23 12:13:00,
2013-03-23 08:22:00,73.0,71.0,29.93,SSE,165,1.0,5.0,92,0.00,,,0.01,,2013-03-23 12:22:00,
2013-03-23 08:33:00,73.0,71.0,29.93,SSE,156,3.0,7.0,93,0.00,,,0.01,,2013-03-23 12:33:00,
2013-03-23 08:42:00,73.0,71.0,29.93,SSE,156,3.0,7.0,93,0.00,,,0.01,,2013-03-23 12:42:00,
2013-03-23 08:53:00,74.0,72.0,29.93,SE,144,5.0,9.0,93,0.00,,,0.01,,2013-03-23 12:53:00,
2013-03-23 09:03:00,75.0,73.0,29.94,SSE,165,5.0,10.0,92,0.00,,,0.01,,2013-03-23 13:03:00,
2013-03-23 09:12:00,75.0,73.0,29.94,SSE,165,5.0,10.0,92,0.00,,,0.01,,2013-03-23 13:12:00,
2013-03-23 09:23:00,75.0,72.0,29.94,South,173,5.0,8.0,91,0.00,,,0.01,,2013-03-23 13:23:00,
2013-03-23 09:33:00,76.0,73.0,29.94,South,177,5.0,12.0,90,0.00,,,0.01,,2013-03-23 13:33:00,
2013-03-23 09:43:00,76.0,73.0,29.94,South,177,5.0,12.0,90,0.00,,,0.01,,2013-03-23 13:43:00,
2013-03-23 09:53:00,76.0,73.0,29.94,South,171,5.0,8.0,89,0.00,,,0.01,,2013-03-23 13:53:00,
2013-03-23 10:03:00,76.0,72.0,29.94,SSE,164,5.0,8.0,87,0.00,,,0.01,,2013-03-23 14:03:00,
2013-03-23 10:12:00,76.0,72.0,29.94,SSE,164,5.0,8.0,87,0.00,,,0.01,,2013-03-23 14:12:00,
2013-03-23 10:22:00,77.0,72.0,29.94,South,175,4.0,9.0,85,0.00,,,0.01,,2013-03-23 14:22:00,
2013-03-23 10:32:00,78.0,72.0,29.94,SE,145,6.0,13.0,82,0.00,,,0.01,,2013-03-23 14:32:00,
2013-03-23 10:43:00,78.0,72.0,29.94,SE,145,6.0,13.0,82,0.00,,,0.01,,2013-03-23 14:43:00,
2013-03-23 10:53:00,79.0,73.0,29.94,SSE,150,5.0,10.0,81,0.00,,,0.01,,2013-03-23 14:53:00,
2013-03-23 11:03:00,79.0,72.0,29.94,SSE,151,4.0,11.0,80,0.00,,,0.01,,2013-03-23 15:03:00,
2013-03-23 11:12:00,79.0,72.0,29.94,SSE,151,4.0,11.0,80,0.00,,,0.01,,2013-03-23 15:12:00,
2013-03-23 11:22:00,78.0,72.0,29.94,South,174,4.0,11.0,83,0.00,,,0.01,,2013-03-23 15:22:00,
2013-03-23 11:33:00,78.0,73.0,29.94,SSE,161,4.0,11.0,85,0.00,,,0.01,,2013-03-23 15:33:00,
2013-03-23 11:43:00,78.0,73.0,29.94,SSE,161,4.0,11.0,85,0.00,,,0.01,,2013-03-23 15:43:00,
2013-03-23 11:53:00,79.0,73.0,29.94,South,174,6.0,10.0,83,0.00,,,0.01,,2013-03-23 15:53:00,
2013-03-23 12:03:00,79.0,73.0,29.93,SSE,150,5.0,13.0,82,0.00,,,0.01,,2013-03-23 16:03:00,
2013-03-23 12:13:00,79.0,73.0,29.93,SSE,150,5.0,13.0,82,0.00,,,0.01,,2013-03-23 16:13:00,
2013-03-23 12:23:00,79.0,73.0,29.93,SSE,151,6.0,13.0,83,0.00,,,0.01,,2013-03-23 16:23:00,
2013-03-23 12:33:00,79.0,74.0,29.92,SSE,166,6.0,18.0,84,0.00,,,0.01,,2013-03-23 16:33:00,
2013-03-23 12:43:00,79.0,74.0,29.92,SSE,166,6.0,18.0,84,0.00,,,0.01,,2013-03-23 16:43:00,
2013-03-23 12:53:00,78.0,73.0,29.91,SE,124,7.0,16.0,85,0.00,,,0.01,,2013-03-23 16:53:00,
2013-03-23 13:02:00,78.0,73.0,29.91,South,180,9.0,16.0,84,0.00,,,0.01,,2013-03-23 17:02:00,
2013-03-23 13:12:00,79.0,74.0,29.90,SE,146,9.0,17.0,84,0.00,,,0.01,,2013-03-23 17:12:00,
2013-03-23 13:22:00,79.0,74.0,29.90,SE,146,9.0,17.0,84,0.00,,,0.01,,2013-03-23 17:22:00,
2013-03-23 13:33:00,79.0,73.0,29.89,SE,133,7.0,18.0,82,0.00,,,0.01,,2013-03-23 17:33:00,
2013-03-23 13:42:00,79.0,73.0,29.89,SE,133,7.0,18.0,82,0.00,,,0.01,,2013-03-23 17:42:00,
2013-03-23 13:53:00,79.0,73.0,29.88,South,176,9.0,18.0,82,0.00,,,0.01,,2013-03-23 17:53:00,
2013-03-23 14:03:00,79.0,73.0,29.88,SE,138,9.0,16.0,82,0.00,,,0.01,,2013-03-23 18:03:00,
2013-03-23 14:12:00,79.0,73.0,29.88,SE,138,9.0,16.0,82,0.00,,,0.01,,2013-03-23 18:12:00,
2013-03-23 14:22:00,79.0,73.0,29.87,SSW,192,6.0,18.0,82,0.00,,,0.01,,2013-03-23 18:22:00,
2013-03-23 14:32:00,79.0,73.0,29.87,SE,140,7.0,17.0,83,0.00,,,0.01,,2013-03-23 18:32:00,
2013-03-23 14:42:00,79.0,73.0,29.87,SE,140,7.0,17.0,83,0.00,,,0.01,,2013-03-23 18:42:00,
2013-03-23 14:53:00,79.0,73.0,29.87,South,189,6.0,17.0,82,0.00,,,0.01,,2013-03-23 18:53:00,
2013-03-23 15:03:00,79.0,73.0,29.86,SE,127,7.0,17.0,83,0.00,,,0.01,,2013-03-23 19:03:00,
2013-03-23 15:13:00,79.0,73.0,29.86,SE,127,7.0,17.0,83,0.00,,,0.01,,2013-03-23 19:13:00,
2013-03-23 15:23:00,79.0,73.0,29.86,South,190,7.0,14.0,82,0.00,,,0.01,,2013-03-23 19:23:00,
2013-03-23 15:32:00,79.0,73.0,29.85,South,169,9.0,21.0,82,0.00,,,0.01,,2013-03-23 19:32:00,
2013-03-23 15:42:00,79.0,73.0,29.85,South,169,9.0,21.0,82,0.00,,,0.01,,2013-03-23 19:42:00,
2013-03-23 15:53:00,79.0,73.0,29.84,SE,138,5.0,15.0,81,0.00,,,0.01,,2013-03-23 19:53:00,
2013-03-23 16:03:00,79.0,73.0,29.83,SSW,196,7.0,17.0,82,0.00,,,0.01,,2013-03-23 20:03:00,
2013-03-23 16:13:00,79.0,73.0,29.83,SSW,196,7.0,17.0,82,0.00,,,0.01,,2013-03-23 20:13:00,
2013-03-23 16:22:00,79.0,73.0,29.83,South,171,6.0,19.0,83,0.00,,,0.01,,2013-03-23 20:22:00,
2013-03-23 16:32:00,79.0,73.0,29.83,South,169,8.0,17.0,82,0.00,,,0.01,,2013-03-23 20:32:00,
2013-03-23 16:42:00,79.0,73.0,29.83,South,169,8.0,17.0,82,0.00,,,0.01,,2013-03-23 20:42:00,
2013-03-23 16:53:00,78.0,72.0,29.82,SSE,153,8.0,17.0,83,0.00,,,0.01,,2013-03-23 20:53:00,
2013-03-23 17:02:00,78.0,72.0,29.82,SE,141,8.0,15.0,83,0.00,,,0.01,,2013-03-23 21:02:00,
2013-03-23 17:12:00,78.0,72.0,29.82,SE,141,8.0,15.0,83,0.00,,,0.01,,2013-03-23 21:12:00,
2013-03-23 17:22:00,78.0,72.0,29.81,SSE,161,8.0,20.0,83,0.00,,,0.01,,2013-03-23 21:22:00,
2013-03-23 17:33:00,78.0,73.0,29.81,SSE,158,7.0,16.0,84,0.00,,,0.01,,2013-03-23 21:33:00,
2013-03-23 17:43:00,78.0,73.0,29.81,SSE,158,7.0,16.0,84,0.00,,,0.01,,2013-03-23 21:43:00,
2013-03-23 17:54:00,78.0,73.0,29.81,SSE,165,7.0,16.0,84,0.00,,,0.01,,2013-03-23 21:54:00,
2013-03-23 18:03:00,78.0,73.0,29.80,South,169,8.0,15.0,84,0.00,,,0.01,,2013-03-23 22:03:00,
2013-03-23 18:13:00,78.0,73.0,29.80,South,169,8.0,15.0,84,0.00,,,0.01,,2013-03-23 22:13:00,
2013-03-23 18:23:00,77.0,72.0,29.80,SSE,161,8.0,19.0,84,0.00,,,0.01,,2013-03-23 22:23:00,
2013-03-23 18:33:00,77.0,72.0,29.80,SSE,165,7.0,15.0,85,0.00,,,0.01,,2013-03-23 22:33:00,
2013-03-23 18:42:00,77.0,72.0,29.80,SSE,165,7.0,15.0,85,0.00,,,0.01,,2013-03-23 22:42:00,
2013-03-23 18:53:00,77.0,72.0,29.80,SSE,148,7.0,13.0,86,0.00,,,0.01,,2013-03-23 22:53:00,
2013-03-23 19:02:00,76.0,72.0,29.80,SSE,153,6.0,13.0,87,0.00,,,0.01,,2013-03-23 23:02:00,
2013-03-23 19:13:00,76.0,72.0,29.80,SSE,153,6.0,13.0,87,0.00,,,0.01,,2013-03-23 23:13:00,
2013-03-23 19:23:00,76.0,72.0,29.81,SE,136,5.0,13.0,87,0.00,,,0.01,,2013-03-23 23:23:00,
2013-03-23 19:33:00,76.0,72.0,29.82,SSE,168,6.0,11.0,87,0.00,,,0.01,,2013-03-23 23:33:00,
2013-03-23 19:43:00,76.0,72.0,29.82,SSE,168,6.0,11.0,87,0.00,,,0.01,,2013-03-23 23:43:00,
2013-03-23 19:52:00,76.0,72.0,29.82,SSW,192,6.0,12.0,88,0.00,,,0.01,,2013-03-23 23:52:00,
2013-03-23 20:02:00,76.0,72.0,29.82,South,183,7.0,14.0,88,0.00,,,0.01,,2013-03-24 00:02:00,
2013-03-23 20:13:00,76.0,72.0,29.82,South,183,7.0,14.0,88,0.00,,,0.01,,2013-03-24 00:13:00,
2013-03-23 20:23:00,76.0,72.0,29.82,SSE,166,6.0,12.0,88,0.00,,,0.01,,2013-03-24 00:23:00,
2013-03-23 20:32:00,75.0,72.0,29.83,SE,138,6.0,11.0,89,0.00,,,0.01,,2013-03-24 00:32:00,
2013-03-23 20:42:00,75.0,72.0,29.83,SE,138,6.0,11.0,89,0.00,,,0.01,,2013-03-24 00:42:00,
2013-03-23 20:53:00,75.0,72.0,29.84,SSE,164,5.0,9.0,89,0.00,,,0.01,,2013-03-24 00:53:00,
2013-03-23 21:02:00,75.0,72.0,29.84,South,180,5.0,11.0,90,0.00,,,0.01,,2013-03-24 01:02:00,
2013-03-23 21:12:00,75.0,72.0,29.84,South,180,5.0,11.0,90,0.00,,,0.01,,2013-03-24 01:12:00,
2013-03-23 21:22:00,75.0,72.0,29.84,SSE,165,6.0,10.0,90,0.00,,,0.01,,2013-03-24 01:22:00,
2013-03-23 21:32:00,75.0,72.0,29.85,South,178,4.0,9.0,91,0.00,,,0.01,,2013-03-24 01:32:00,
2013-03-23 21:42:00,75.0,72.0,29.85,South,178,4.0,9.0,91,0.00,,,0.01,,2013-03-24 01:42:00,
2013-03-23 21:53:00,75.0,72.0,29.85,South,176,2.0,9.0,91,0.00,,,0.01,,2013-03-24 01:53:00,
2013-03-23 22:03:00,75.0,72.0,29.86,SSE,159,3.0,7.0,91,0.00,,,0.01,,2013-03-24 02:03:00,
2013-03-23 22:12:00,75.0,72.0,29.86,SSE,159,3.0,7.0,91,0.00,,,0.01,,2013-03-24 02:12:00,
2013-03-23 22:22:00,75.0,72.0,29.86,SE,143,3.0,7.0,91,0.00,,,0.01,,2013-03-24 02:22:00,
2013-03-23 22:32:00,75.0,72.0,29.86,SE,146,4.0,9.0,91,0.00,,,0.01,,2013-03-24 02:32:00,
2013-03-23 22:42:00,75.0,72.0,29.86,SE,146,4.0,9.0,91,0.00,,,0.01,,2013-03-24 02:42:00,
2013-03-23 22:52:00,75.0,72.0,29.86,SSE,158,4.0,9.0,91,0.00,,,0.01,,2013-03-24 02:52:00,
2013-03-23 23:02:00,75.0,73.0,29.87,SSE,160,3.0,6.0,92,0.00,,,0.01,,2013-03-24 03:02:00,
2013-03-23 23:12:00,75.0,73.0,29.87,SSE,160,3.0,6.0,92,0.00,,,0.01,,2013-03-24 03:12:00,
2013-03-23 23:23:00,75.0,73.0,29.87,SSE,155,1.0,8.0,92,0.00,,,0.01,,2013-03-24 03:23:00,
2013-03-23 23:33:00,75.0,73.0,29.87,SSE,162,2.0,6.0,92,0.00,,,0.01,,2013-03-24 03:33:00,
2013-03-23 23:42:00,75.0,73.0,29.87,SSE,162,2.0,6.0,92,0.00,,,0.01,,2013-03-24 03:42:00,
2013-03-23 23:53:00,75.0,73.0,29.87,SE,129,2.0,7.0,92,0.00,,,0.01,,2013-03-24 03:53:00,